createdAt,value
2017-09-03T00:00:51.429Z,57.60
2017-09-03T00:03:20.883Z,57.40
2017-09-03T00:05:50.563Z,57.50
2017-09-03T00:08:19.832Z,57.40
2017-09-03T00:10:49.442Z,57.40
2017-09-03T00:13:24.076Z,57.40
2017-09-03T00:15:53.461Z,57.30
2017-09-03T00:18:24.171Z,57.40
2017-09-03T00:20:53.371Z,57.50
2017-09-03T00:23:22.674Z,57.70
2017-09-03T00:25:51.700Z,58.00
2017-09-03T00:28:20.682Z,58.10
2017-09-03T00:30:49.880Z,58.10
2017-09-03T00:33:18.883Z,58.40
2017-09-03T00:35:47.662Z,58.60
2017-09-03T00:38:16.656Z,58.70
2017-09-03T00:40:46.653Z,58.50
2017-09-03T00:43:15.735Z,58.50
2017-09-03T00:45:44.662Z,58.60
2017-09-03T00:48:13.552Z,58.20
2017-09-03T00:50:43.273Z,58.30
2017-09-03T00:53:12.156Z,57.80
2017-09-03T00:55:41.667Z,57.90
2017-09-03T00:58:10.549Z,58.10
2017-09-03T01:00:41.291Z,57.90
2017-09-03T01:03:10.550Z,57.80
2017-09-03T01:05:39.478Z,57.70
2017-09-03T01:08:08.778Z,57.90
2017-09-03T01:10:37.671Z,57.90
2017-09-03T01:13:06.748Z,58.00
2017-09-03T01:15:35.664Z,58.10
2017-09-03T01:18:04.442Z,58.20
2017-09-03T01:20:33.285Z,58.20
2017-09-03T01:23:02.160Z,58.40
2017-09-03T01:25:31.220Z,58.20
2017-09-03T01:28:00.108Z,58.20
2017-09-03T01:30:29.002Z,58.40
2017-09-03T01:32:58.714Z,58.50
2017-09-03T01:35:27.732Z,58.60
2017-09-03T01:37:57.004Z,58.50
2017-09-03T01:40:26.100Z,59.20
2017-09-03T01:42:54.993Z,58.70
2017-09-03T01:45:24.294Z,58.50
2017-09-03T01:47:53.281Z,58.70
2017-09-03T01:50:22.484Z,58.80
2017-09-03T01:52:51.505Z,58.90
2017-09-03T01:55:20.677Z,58.80
2017-09-03T01:57:49.526Z,58.90
2017-09-03T02:00:18.869Z,59.00
2017-09-03T02:02:48.371Z,59.00
2017-09-03T02:05:17.061Z,58.80
2017-09-03T02:07:45.914Z,58.90
2017-09-03T02:10:14.944Z,58.80
2017-09-03T02:12:44.146Z,58.80
2017-09-03T02:15:13.755Z,58.70
2017-09-03T02:17:44.078Z,58.70
2017-09-03T02:20:13.136Z,58.80
2017-09-03T02:22:42.265Z,58.70
2017-09-03T02:25:11.974Z,58.90
2017-09-03T02:27:40.865Z,59.00
2017-09-03T02:30:10.576Z,59.10
2017-09-03T02:32:39.364Z,59.00
2017-09-03T02:35:08.121Z,59.10
2017-09-03T02:37:37.048Z,59.20
2017-09-03T02:40:05.938Z,59.10
2017-09-03T02:42:35.891Z,59.20
2017-09-03T02:45:04.914Z,59.30
2017-09-03T02:47:33.841Z,59.50
2017-09-03T02:50:02.729Z,59.60
2017-09-03T02:52:31.831Z,59.50
2017-09-03T02:55:00.715Z,59.50
2017-09-03T02:57:29.607Z,59.40
2017-09-03T02:59:58.505Z,59.40
2017-09-03T03:02:27.804Z,59.40
2017-09-03T03:04:56.687Z,59.20
2017-09-03T03:07:25.477Z,59.40
2017-09-03T03:09:54.369Z,59.80
2017-09-03T03:12:23.216Z,60.00
2017-09-03T03:14:52.100Z,60.10
2017-09-03T03:17:21.052Z,60.10
2017-09-03T03:19:50.871Z,60.20
2017-09-03T03:22:19.886Z,60.30
2017-09-03T03:24:48.847Z,60.40
2017-09-03T03:27:17.804Z,60.40
2017-09-03T03:29:47.090Z,60.40
2017-09-03T03:32:16.140Z,60.10
2017-09-03T03:34:45.437Z,60.00
2017-09-03T03:37:14.530Z,59.70
2017-09-03T03:39:44.051Z,59.70
2017-09-03T03:42:13.705Z,59.60
2017-09-03T03:44:42.641Z,59.60
2017-09-03T03:47:11.807Z,59.70
2017-09-03T03:49:40.856Z,59.80
2017-09-03T03:52:10.372Z,59.80
2017-09-03T03:54:39.240Z,60.00
2017-09-03T03:57:08.321Z,60.10
2017-09-03T03:59:37.208Z,60.00
2017-09-03T04:02:06.131Z,60.20
2017-09-03T04:04:35.345Z,60.40
2017-09-03T04:07:04.497Z,60.30
2017-09-03T04:09:33.577Z,60.40
2017-09-03T04:12:03.408Z,60.40
2017-09-03T04:14:32.739Z,61.00
2017-09-03T04:17:01.800Z,60.20
2017-09-03T04:19:30.970Z,60.20
2017-09-03T04:21:59.789Z,60.00
2017-09-03T04:24:28.769Z,60.00
2017-09-03T04:26:58.137Z,60.40
2017-09-03T04:29:28.516Z,60.30
2017-09-03T04:31:57.400Z,60.50
2017-09-03T04:34:26.447Z,60.40
2017-09-03T04:36:55.339Z,60.60
2017-09-03T04:39:24.380Z,60.60
2017-09-03T04:41:53.271Z,60.60
2017-09-03T04:44:22.162Z,60.60
2017-09-03T04:46:50.965Z,60.60
2017-09-03T04:49:19.674Z,60.70
2017-09-03T04:51:48.529Z,60.80
2017-09-03T04:54:17.775Z,60.70
2017-09-03T04:56:46.618Z,60.90
2017-09-03T04:59:15.508Z,61.20
2017-09-03T05:01:44.411Z,61.30
2017-09-03T05:04:13.701Z,61.60
2017-09-03T05:06:42.796Z,61.60
2017-09-03T05:09:11.789Z,61.90
2017-09-03T05:11:40.680Z,61.70
2017-09-03T05:14:09.599Z,61.60
2017-09-03T05:16:38.774Z,61.70
2017-09-03T05:19:07.829Z,61.80
2017-09-03T05:21:36.762Z,61.90
2017-09-03T05:24:05.703Z,62.30
2017-09-03T05:26:34.642Z,62.40
2017-09-03T05:29:03.533Z,62.50
2017-09-03T05:31:32.423Z,62.70
2017-09-03T05:34:01.724Z,63.30
2017-09-03T05:36:31.844Z,63.30
2017-09-03T05:39:00.891Z,63.40
2017-09-03T05:41:29.830Z,63.50
2017-09-03T05:43:59.539Z,63.40
2017-09-03T05:46:28.434Z,63.20
2017-09-03T05:48:57.322Z,63.20
2017-09-03T05:51:26.627Z,63.20
2017-09-03T05:53:56.748Z,63.20
2017-09-03T05:56:25.840Z,63.40
2017-09-03T05:58:54.732Z,63.60
2017-09-03T06:01:23.829Z,63.80
2017-09-03T06:03:52.723Z,63.90
2017-09-03T06:06:21.620Z,63.60
2017-09-03T06:08:50.706Z,63.40
2017-09-03T06:11:19.802Z,63.10
2017-09-03T06:13:48.697Z,62.80
2017-09-03T06:16:18.403Z,63.00
2017-09-03T06:18:47.296Z,62.90
2017-09-03T06:21:16.082Z,62.80
2017-09-03T06:23:44.971Z,62.80
2017-09-03T06:26:13.966Z,62.70
2017-09-03T06:28:42.848Z,62.50
2017-09-03T06:31:11.897Z,62.40
2017-09-03T06:33:40.751Z,62.40
2017-09-03T06:36:09.631Z,62.30
2017-09-03T06:38:38.726Z,62.00
2017-09-03T06:41:07.619Z,62.00
2017-09-03T06:43:36.510Z,61.70
2017-09-03T06:46:05.401Z,61.50
2017-09-03T06:48:34.602Z,61.70
2017-09-03T06:51:05.154Z,61.60
2017-09-03T06:53:36.036Z,60.80
2017-09-03T06:56:05.005Z,60.80
2017-09-03T06:58:34.677Z,60.40
2017-09-03T07:01:03.558Z,60.30
2017-09-03T07:03:32.617Z,60.20
2017-09-03T07:06:01.557Z,59.70
2017-09-03T07:08:30.397Z,59.40
2017-09-03T07:10:59.230Z,59.10
2017-09-03T07:13:29.116Z,58.70
2017-09-03T07:15:57.958Z,58.20
2017-09-03T07:18:26.829Z,58.10
2017-09-03T07:21:00.163Z,57.70
2017-09-03T07:23:29.557Z,57.40
2017-09-03T07:26:00.958Z,57.00
2017-09-03T07:28:29.874Z,56.60
2017-09-03T07:30:59.115Z,56.40
2017-09-03T07:33:34.551Z,56.10
2017-09-03T07:36:05.549Z,56.80
2017-09-03T07:38:35.048Z,56.80
2017-09-03T07:41:04.152Z,56.90
2017-09-03T07:43:33.345Z,56.40
2017-09-03T07:46:02.644Z,55.00
2017-09-03T07:48:31.538Z,54.10
2017-09-03T07:51:00.632Z,53.30
2017-09-03T07:53:29.522Z,52.40
2017-09-03T07:55:58.468Z,53.20
2017-09-03T07:58:27.304Z,52.90
2017-09-03T08:00:56.476Z,52.50
2017-09-03T08:03:25.395Z,52.30
2017-09-03T08:05:54.563Z,51.60
2017-09-03T08:08:23.627Z,50.90
2017-09-03T08:10:53.498Z,49.70
2017-09-03T08:13:22.441Z,49.60
2017-09-03T08:15:52.461Z,49.20
2017-09-03T08:18:21.508Z,48.50
2017-09-03T08:20:50.775Z,48.30
2017-09-03T08:23:20.478Z,48.70
2017-09-03T08:25:49.513Z,47.80
2017-09-03T08:28:18.948Z,47.80
2017-09-03T08:30:47.712Z,48.90
2017-09-03T08:33:17.251Z,48.70
2017-09-03T08:35:47.436Z,48.70
2017-09-03T08:38:18.683Z,49.10
2017-09-03T08:40:50.981Z,48.80
2017-09-03T08:43:20.553Z,48.60
2017-09-03T08:45:50.102Z,48.70
2017-09-03T08:48:19.843Z,49.40
2017-09-03T08:50:49.792Z,51.00
2017-09-03T08:53:19.584Z,51.30
2017-09-03T08:55:49.281Z,49.90
2017-09-03T08:58:18.757Z,49.10
2017-09-03T09:00:48.204Z,48.20
2017-09-03T09:03:19.956Z,48.60
2017-09-03T09:05:49.356Z,47.80
2017-09-03T09:08:19.491Z,48.00
2017-09-03T09:10:49.002Z,48.30
2017-09-03T09:13:18.760Z,47.80
2017-09-03T09:15:48.037Z,48.00
2017-09-03T09:18:17.249Z,48.90
2017-09-03T09:20:48.500Z,50.30
2017-09-03T09:23:18.166Z,49.50
2017-09-03T09:25:47.897Z,48.60
2017-09-03T09:28:16.770Z,49.70
2017-09-03T09:30:46.481Z,48.80
2017-09-03T09:33:15.929Z,47.60
2017-09-03T09:35:48.016Z,47.20
2017-09-03T09:38:17.130Z,47.90
2017-09-03T09:40:45.819Z,48.30
2017-09-03T09:43:14.643Z,47.60
2017-09-03T09:45:43.719Z,48.40
2017-09-03T09:48:13.380Z,49.00
2017-09-03T09:50:46.875Z,49.00
2017-09-03T09:53:15.920Z,48.90
2017-09-03T09:55:45.024Z,49.00
2017-09-03T09:58:14.069Z,49.10
2017-09-03T10:00:44.899Z,49.30
2017-09-03T10:03:15.400Z,48.90
2017-09-03T10:05:55.767Z,48.70
2017-09-03T10:08:24.626Z,48.70
2017-09-03T10:10:54.174Z,48.70
2017-09-03T10:13:23.506Z,47.50
2017-09-03T10:15:52.323Z,46.40
2017-09-03T10:18:21.674Z,46.50
2017-09-03T10:20:50.926Z,43.20
2017-09-03T10:23:19.816Z,46.10
2017-09-03T10:25:48.712Z,47.60
2017-09-03T10:28:17.874Z,48.40
2017-09-03T10:30:46.908Z,48.60
2017-09-03T10:33:16.209Z,49.00
2017-09-03T10:35:45.713Z,48.50
2017-09-03T10:38:15.012Z,48.30
2017-09-03T10:40:44.805Z,48.80
2017-09-03T10:43:13.928Z,48.30
2017-09-03T10:45:43.429Z,48.50
2017-09-03T10:48:12.740Z,48.50
2017-09-03T10:50:42.020Z,48.40
2017-09-03T10:53:11.551Z,48.40
2017-09-03T10:55:40.621Z,48.00
2017-09-03T10:58:09.719Z,49.20
2017-09-03T11:00:39.842Z,51.10
2017-09-03T11:03:08.732Z,50.70
2017-09-03T11:05:37.802Z,50.60
2017-09-03T11:08:07.891Z,50.80
2017-09-03T11:10:36.927Z,50.60
2017-09-03T11:13:05.975Z,50.40
2017-09-03T11:15:35.133Z,50.30
2017-09-03T11:18:04.555Z,50.30
2017-09-03T11:20:33.419Z,50.00
2017-09-03T11:23:02.220Z,49.70
2017-09-03T11:25:31.444Z,49.20
2017-09-03T11:28:00.387Z,48.90
2017-09-03T11:30:30.220Z,48.90
2017-09-03T11:32:59.316Z,49.20
2017-09-03T11:35:28.204Z,50.00
2017-09-03T11:37:57.371Z,50.20
2017-09-03T11:40:26.455Z,51.00
2017-09-03T11:42:55.708Z,51.00
2017-09-03T11:45:25.408Z,50.00
2017-09-03T11:47:54.298Z,49.60
2017-09-03T11:50:23.404Z,49.50
2017-09-03T11:52:52.185Z,48.90
2017-09-03T11:55:21.116Z,48.00
2017-09-03T11:57:50.098Z,47.60
2017-09-03T12:00:19.158Z,47.40
2017-09-03T12:02:49.169Z,47.30
2017-09-03T12:05:18.379Z,47.80
2017-09-03T12:07:47.506Z,46.30
2017-09-03T12:10:17.080Z,45.40
2017-09-03T12:12:46.181Z,44.50
2017-09-03T12:15:15.363Z,44.20
2017-09-03T12:17:44.425Z,43.60
2017-09-03T12:20:13.627Z,43.90
2017-09-03T12:22:42.649Z,44.00
2017-09-03T12:25:12.246Z,44.40
2017-09-03T12:27:41.066Z,45.70
2017-09-03T12:30:09.953Z,45.10
2017-09-03T12:32:40.751Z,45.30
2017-09-03T12:35:09.783Z,44.40
2017-09-03T12:37:39.699Z,44.10
2017-09-03T12:40:13.315Z,44.60
2017-09-03T12:42:43.741Z,46.00
2017-09-03T12:45:12.532Z,46.50
2017-09-03T12:47:42.189Z,47.30
2017-09-03T12:50:10.914Z,47.80
2017-09-03T12:52:40.933Z,48.90
2017-09-03T12:55:09.818Z,49.20
2017-09-03T12:57:38.708Z,49.80
2017-09-03T13:00:07.817Z,50.50
2017-09-03T13:02:37.934Z,49.80
2017-09-03T13:05:07.646Z,49.80
2017-09-03T13:07:36.732Z,49.80
2017-09-03T13:10:05.624Z,49.60
2017-09-03T13:12:35.252Z,50.60
2017-09-03T13:15:04.527Z,51.40
2017-09-03T13:17:33.475Z,50.40
2017-09-03T13:20:03.233Z,49.30
2017-09-03T13:22:32.124Z,49.30
2017-09-03T13:25:01.181Z,49.60
2017-09-03T13:27:30.115Z,49.70
2017-09-03T13:29:59.002Z,50.20
2017-09-03T13:32:27.893Z,50.60
2017-09-03T13:34:56.838Z,51.50
2017-09-03T13:37:26.494Z,52.30
2017-09-03T13:39:55.612Z,52.20
2017-09-03T13:42:24.894Z,53.10
2017-09-03T13:44:53.790Z,53.60
2017-09-03T13:47:22.880Z,53.20
2017-09-03T13:49:52.462Z,53.00
2017-09-03T13:52:21.751Z,53.40
2017-09-03T13:54:50.946Z,53.70
2017-09-03T13:57:20.091Z,53.20
2017-09-03T13:59:49.303Z,52.60
2017-09-03T14:02:18.871Z,52.20
2017-09-03T14:04:48.112Z,52.20
2017-09-03T14:07:17.185Z,52.40
2017-09-03T14:09:46.496Z,53.60
2017-09-03T14:12:15.585Z,55.50
2017-09-03T14:14:44.535Z,54.90
2017-09-03T14:17:13.571Z,55.20
2017-09-03T14:19:42.669Z,54.10
2017-09-03T14:22:11.968Z,54.30
2017-09-03T14:24:41.064Z,54.70
2017-09-03T14:27:09.950Z,55.50
2017-09-03T14:29:38.804Z,56.40
2017-09-03T14:32:07.751Z,56.90
2017-09-03T14:34:37.699Z,57.40
2017-09-03T14:37:06.892Z,57.50
2017-09-03T14:39:36.150Z,57.00
2017-09-03T14:42:05.015Z,58.20
2017-09-03T14:44:33.929Z,58.70
2017-09-03T14:47:03.021Z,59.00
2017-09-03T14:49:32.129Z,59.00
2017-09-03T14:52:02.089Z,58.90
2017-09-03T14:54:31.141Z,58.50
2017-09-03T14:57:01.212Z,58.70
2017-09-03T14:59:30.574Z,59.10
2017-09-03T15:01:59.449Z,60.00
2017-09-03T15:04:28.951Z,61.10
2017-09-03T15:06:57.835Z,61.50
2017-09-03T15:09:28.651Z,62.20
2017-09-03T15:11:58.126Z,62.30
2017-09-03T15:14:30.165Z,63.00
2017-09-03T15:17:06.871Z,63.50
2017-09-03T15:19:41.109Z,63.50
2017-09-03T15:22:12.224Z,63.60
2017-09-03T15:24:48.465Z,63.90
2017-09-03T15:27:19.352Z,64.20
2017-09-03T15:29:50.564Z,64.60
2017-09-03T15:32:20.594Z,64.30
2017-09-03T15:34:49.951Z,64.30
2017-09-03T15:37:18.681Z,64.20
2017-09-03T15:39:48.031Z,64.10
2017-09-03T15:42:17.132Z,64.20
2017-09-03T15:44:46.119Z,64.20
2017-09-03T15:47:15.236Z,64.50
2017-09-03T15:49:44.285Z,64.10
2017-09-03T15:52:13.918Z,64.00
2017-09-03T15:54:43.220Z,64.20
2017-09-03T15:57:12.272Z,64.10
2017-09-03T15:59:41.228Z,64.50
2017-09-03T16:02:10.510Z,65.30
2017-09-03T16:04:39.535Z,65.10
2017-09-03T16:07:08.483Z,66.10
2017-09-03T16:09:37.587Z,66.50
2017-09-03T16:12:06.489Z,66.90
2017-09-03T16:14:35.579Z,67.10
2017-09-03T16:17:05.288Z,67.30
2017-09-03T16:19:34.788Z,67.30
2017-09-03T16:22:03.893Z,67.50
2017-09-03T16:24:33.349Z,67.80
2017-09-03T16:27:02.253Z,68.30
2017-09-03T16:29:31.274Z,68.10
2017-09-03T16:32:00.309Z,67.90
2017-09-03T16:34:29.285Z,68.00
2017-09-03T16:36:58.358Z,68.40
2017-09-03T16:39:27.254Z,68.50
2017-09-03T16:41:57.308Z,68.50
2017-09-03T16:44:26.059Z,68.80
2017-09-03T16:46:55.155Z,68.50
2017-09-03T16:49:24.609Z,68.50
2017-09-03T16:51:53.560Z,68.60
2017-09-03T16:54:23.193Z,68.80
2017-09-03T16:56:52.359Z,68.60
2017-09-03T16:59:21.535Z,68.50
2017-09-03T17:01:50.702Z,69.40
2017-09-03T17:04:24.581Z,69.60
2017-09-03T17:06:53.860Z,69.30
2017-09-03T17:09:23.048Z,69.20
2017-09-03T17:11:51.938Z,69.30
2017-09-03T17:14:21.352Z,69.50
2017-09-03T17:16:50.346Z,69.50
2017-09-03T17:19:22.059Z,69.50
2017-09-03T17:21:51.344Z,69.30
2017-09-03T17:24:20.914Z,69.10
2017-09-03T17:26:50.645Z,69.30
2017-09-03T17:29:20.206Z,70.10
2017-09-03T17:31:56.084Z,69.90
2017-09-03T17:37:31.107Z,69.70
2017-09-03T17:40:00.363Z,69.80
2017-09-03T17:42:30.680Z,69.80
2017-09-03T17:45:00.830Z,69.50
2017-09-03T17:47:30.357Z,69.50
2017-09-03T17:49:59.491Z,69.70
2017-09-03T17:52:28.714Z,69.90
2017-09-03T17:54:58.144Z,70.00
2017-09-03T17:57:27.777Z,69.90
2017-09-03T17:59:56.892Z,70.10
2017-09-03T18:02:26.162Z,70.10
2017-09-03T18:04:56.749Z,70.20
2017-09-03T18:07:26.068Z,70.20
2017-09-03T18:09:55.903Z,70.30
2017-09-03T18:12:25.324Z,70.30
2017-09-03T18:14:54.567Z,70.40
2017-09-03T18:17:23.671Z,70.10
2017-09-03T18:19:53.615Z,69.80
2017-09-03T18:22:24.082Z,70.40
2017-09-03T18:24:52.963Z,70.00
2017-09-03T18:27:22.784Z,70.00
2017-09-03T18:30:03.070Z,70.20
2017-09-03T18:32:32.768Z,70.50
2017-09-03T18:35:01.859Z,70.30
2017-09-03T18:37:35.667Z,70.50
2017-09-03T18:40:10.768Z,70.50
2017-09-03T18:46:00.093Z,70.30
2017-09-03T18:48:29.536Z,70.30
2017-09-03T18:50:59.957Z,70.50
2017-09-03T18:53:32.591Z,70.40
2017-09-03T18:56:04.349Z,70.20
2017-09-03T18:58:35.466Z,70.20
2017-09-03T19:01:04.398Z,70.20
2017-09-03T19:03:33.457Z,70.10
2017-09-03T19:06:03.716Z,70.20
2017-09-03T19:08:32.655Z,70.20
2017-09-03T19:11:02.046Z,70.20
2017-09-03T19:13:30.948Z,70.70
2017-09-03T19:16:00.317Z,70.80
2017-09-03T19:18:29.099Z,70.70
2017-09-03T19:20:58.194Z,70.80
2017-09-03T19:23:27.431Z,70.80
2017-09-03T19:25:56.371Z,70.80
2017-09-03T19:28:25.823Z,70.80
2017-09-03T19:30:54.970Z,70.70
2017-09-03T19:33:24.431Z,71.30
2017-09-03T19:35:54.024Z,70.80
2017-09-03T19:38:25.738Z,70.80
2017-09-03T19:40:54.600Z,70.80
2017-09-03T19:43:23.844Z,70.90
2017-09-03T19:45:53.170Z,70.90
2017-09-03T19:48:22.303Z,70.80
2017-09-03T19:50:51.217Z,70.90
2017-09-03T19:53:20.451Z,71.20
2017-09-03T19:55:49.464Z,71.50
2017-09-03T19:58:19.329Z,71.70
2017-09-03T20:00:48.623Z,71.70
2017-09-03T20:03:17.545Z,72.30
2017-09-03T20:05:46.409Z,71.70
2017-09-03T20:08:15.366Z,71.80
2017-09-03T20:10:44.677Z,71.80
2017-09-03T20:13:13.706Z,71.40
2017-09-03T20:15:42.600Z,71.10
2017-09-03T20:18:11.443Z,70.90
2017-09-03T20:20:41.189Z,70.70
2017-09-03T20:23:10.042Z,70.60
2017-09-03T20:25:39.344Z,70.50
2017-09-03T20:28:08.274Z,70.60
2017-09-03T20:30:38.207Z,70.70
2017-09-03T20:33:07.286Z,70.80
2017-09-03T20:35:36.795Z,70.80
2017-09-03T20:38:07.894Z,70.70
2017-09-03T20:40:37.994Z,70.50
2017-09-03T20:43:07.172Z,70.40
2017-09-03T20:45:36.978Z,70.20
2017-09-03T20:48:06.072Z,70.00
2017-09-03T20:50:35.457Z,70.00
2017-09-03T20:53:04.632Z,70.10
2017-09-03T20:55:34.417Z,70.00
2017-09-03T20:58:03.417Z,69.90
2017-09-03T21:00:34.151Z,69.80
2017-09-03T21:03:03.706Z,69.80
2017-09-03T21:05:33.777Z,69.50
2017-09-03T21:08:05.929Z,69.30
2017-09-03T21:10:48.929Z,69.30
2017-09-03T21:13:18.465Z,69.40
2017-09-03T21:15:47.627Z,69.50
2017-09-03T21:18:16.565Z,69.40
2017-09-03T21:20:45.527Z,69.60
2017-09-03T21:23:14.712Z,69.60
2017-09-03T21:25:43.644Z,69.80
2017-09-03T21:28:13.016Z,70.10
2017-09-03T21:30:42.011Z,70.00
2017-09-03T21:33:11.082Z,70.20
2017-09-03T21:35:41.109Z,70.30
2017-09-03T21:38:10.995Z,70.00
2017-09-03T21:40:40.419Z,70.10
2017-09-03T21:43:09.257Z,70.20
2017-09-03T21:45:39.198Z,70.20
2017-09-03T21:48:08.512Z,70.20
2017-09-03T21:50:38.547Z,70.20
2017-09-03T21:53:08.283Z,70.30
2017-09-03T21:55:37.831Z,70.30
2017-09-03T21:58:06.738Z,70.40
2017-09-03T22:00:35.741Z,70.20
2017-09-03T22:03:04.837Z,70.20
2017-09-03T22:05:33.925Z,70.40
2017-09-03T22:08:03.809Z,70.40
2017-09-03T22:10:33.080Z,70.40
2017-09-03T22:13:03.266Z,70.50
2017-09-03T22:15:33.048Z,70.50
2017-09-03T22:18:02.556Z,70.40
2017-09-03T22:20:31.893Z,70.30
2017-09-03T22:23:00.939Z,70.30
2017-09-03T22:25:29.859Z,70.30
2017-09-03T22:27:59.355Z,70.20
2017-09-03T22:30:28.638Z,70.20
2017-09-03T22:32:57.989Z,70.30
2017-09-03T22:35:27.248Z,70.40
2017-09-03T22:37:56.181Z,70.40
2017-09-03T22:40:34.266Z,71.40
2017-09-03T22:43:03.725Z,70.90
2017-09-03T22:45:32.689Z,71.40
2017-09-03T22:48:02.067Z,71.00
2017-09-03T22:50:31.189Z,71.10
2017-09-03T22:53:00.194Z,71.00
2017-09-03T22:55:29.162Z,70.90
2017-09-03T22:57:58.257Z,70.50
2017-09-03T23:00:27.557Z,70.90
2017-09-03T23:02:56.862Z,71.10
2017-09-03T23:05:25.751Z,71.00
2017-09-03T23:07:55.262Z,70.90
2017-09-03T23:10:24.147Z,71.10
2017-09-03T23:12:52.900Z,71.20
2017-09-03T23:15:21.727Z,71.20
2017-09-03T23:17:50.455Z,71.10
2017-09-03T23:20:19.609Z,70.90
2017-09-03T23:22:48.526Z,70.80
2017-09-03T23:25:17.753Z,70.70
2017-09-03T23:27:46.923Z,71.00
2017-09-03T23:30:16.608Z,71.10
2017-09-03T23:32:45.497Z,71.10
2017-09-03T23:35:14.592Z,71.10
2017-09-03T23:37:43.380Z,71.80
2017-09-03T23:40:12.271Z,71.20
2017-09-03T23:42:41.162Z,71.10
2017-09-03T23:45:10.217Z,70.80
2017-09-03T23:47:39.790Z,70.80
2017-09-03T23:50:08.863Z,70.90
2017-09-03T23:52:37.926Z,70.90
2017-09-03T23:55:06.851Z,70.90
2017-09-03T23:57:35.746Z,70.80
